createdAt,value
2023-03-26T00:01:14.083Z,91.05
2023-03-26T00:03:42.027Z,90.86
2023-03-26T00:06:11.026Z,91.13
2023-03-26T00:08:39.754Z,91.81
2023-03-26T00:11:07.640Z,90.88
2023-03-26T00:13:34.533Z,90.23
2023-03-26T00:16:01.808Z,90.63
2023-03-26T00:18:31.524Z,90.88
2023-03-26T00:20:58.824Z,90.28
2023-03-26T00:23:27.092Z,90.16
2023-03-26T00:25:54.814Z,90.10
2023-03-26T00:28:22.883Z,90.80
2023-03-26T00:30:57.055Z,90.72
2023-03-26T00:33:23.920Z,89.86
2023-03-26T00:35:55.480Z,90.13
2023-03-26T00:38:23.970Z,89.58
2023-03-26T00:40:52.127Z,90.50
2023-03-26T00:43:22.373Z,90.57
2023-03-26T00:45:54.453Z,91.49
2023-03-26T00:48:31.353Z,92.01
2023-03-26T00:51:05.789Z,91.44
2023-03-26T00:53:33.357Z,93.03
2023-03-26T00:56:00.436Z,92.25
2023-03-26T00:58:27.674Z,92.59
2023-03-26T01:00:59.990Z,92.29
2023-03-26T01:03:35.181Z,93.21
2023-03-26T01:06:08.249Z,92.60
2023-03-26T01:08:43.322Z,92.88
2023-03-26T01:11:14.562Z,93.21
2023-03-26T01:13:47.159Z,93.18
2023-03-26T01:16:29.183Z,93.55
2023-03-26T01:19:02.788Z,93.64
2023-03-26T01:21:30.446Z,93.22
2023-03-26T01:24:05.159Z,93.30
2023-03-26T01:26:57.988Z,92.36
2023-03-26T01:29:44.707Z,93.25
2023-03-26T01:32:40.438Z,92.58
2023-03-26T01:35:30.233Z,92.66
2023-03-26T01:38:22.867Z,93.28
2023-03-26T01:40:59.763Z,92.97
2023-03-26T01:43:26.221Z,92.32
2023-03-26T01:45:54.712Z,92.44
2023-03-26T01:48:21.275Z,93.14
2023-03-26T01:50:49.026Z,92.61
2023-03-26T01:53:22.446Z,93.30
2023-03-26T01:56:06.649Z,93.79
2023-03-26T01:59:18.813Z,93.88
2023-03-26T02:01:58.085Z,93.30
2023-03-26T02:04:55.441Z,94.14
2023-03-26T02:07:28.739Z,94.39
2023-03-26T02:10:08.120Z,94.08
2023-03-26T02:12:37.956Z,93.56
2023-03-26T02:15:07.802Z,93.44
2023-03-26T02:17:40.278Z,93.12
2023-03-26T02:20:10.456Z,93.97
2023-03-26T02:22:43.034Z,94.13
2023-03-26T02:25:29.891Z,94.22
2023-03-26T02:27:56.532Z,94.66
2023-03-26T02:30:25.920Z,94.48
2023-03-26T02:32:54.304Z,95.32
2023-03-26T02:35:22.462Z,95.43
2023-03-26T02:37:50.955Z,94.92
2023-03-26T02:40:22.402Z,95.79
2023-03-26T02:42:49.123Z,95.73
2023-03-26T02:45:15.727Z,95.79
2023-03-26T02:47:43.341Z,95.30
2023-03-26T02:50:11.869Z,95.90
2023-03-26T02:52:38.660Z,97.24
2023-03-26T02:55:05.341Z,97.43
2023-03-26T02:57:31.838Z,98.19
2023-03-26T02:59:58.308Z,98.41
2023-03-26T03:02:25.624Z,98.67
2023-03-26T03:04:52.184Z,98.39
2023-03-26T03:07:18.686Z,99.13
2023-03-26T03:09:45.169Z,99.26
2023-03-26T03:12:11.618Z,98.74
2023-03-26T03:14:38.125Z,98.68
2023-03-26T03:17:04.685Z,99.29
2023-03-26T03:19:31.159Z,99.04
2023-03-26T03:21:57.693Z,98.57
2023-03-26T03:24:24.124Z,99.50
2023-03-26T03:26:55.029Z,100.00
2023-03-26T03:29:21.438Z,100.00
2023-03-26T03:31:47.989Z,100.00
2023-03-26T03:34:14.403Z,100.00
2023-03-26T03:36:40.854Z,100.00
2023-03-26T03:39:07.337Z,100.00
2023-03-26T03:41:33.973Z,100.00
2023-03-26T03:44:01.663Z,100.00
2023-03-26T03:46:28.537Z,100.00
2023-03-26T03:48:56.010Z,100.00
2023-03-26T03:51:22.532Z,100.00
2023-03-26T03:53:49.844Z,100.00
2023-03-26T03:56:19.287Z,100.00
2023-03-26T03:58:46.309Z,100.00
2023-03-26T04:01:13.675Z,100.00
2023-03-26T04:03:40.464Z,100.00
2023-03-26T04:06:07.455Z,100.00
2023-03-26T04:08:39.714Z,100.00
2023-03-26T04:11:06.419Z,99.94
2023-03-26T04:13:32.870Z,99.81
2023-03-26T04:16:00.074Z,100.00
2023-03-26T04:18:27.884Z,99.82
2023-03-26T04:20:55.844Z,99.95
2023-03-26T04:23:23.455Z,100.00
2023-03-26T04:25:58.560Z,100.00
2023-03-26T04:28:36.504Z,100.00
2023-03-26T04:31:06.423Z,100.00
2023-03-26T04:33:35.097Z,100.00
2023-03-26T04:36:03.253Z,100.00
2023-03-26T04:38:33.670Z,100.00
2023-03-26T04:41:03.304Z,100.00
2023-03-26T04:43:31.411Z,100.00
2023-03-26T04:45:59.018Z,100.00
2023-03-26T04:48:25.930Z,100.00
2023-03-26T04:50:54.756Z,100.00
2023-03-26T04:53:22.147Z,100.00
2023-03-26T04:56:04.104Z,100.00
2023-03-26T04:58:33.230Z,100.00
2023-03-26T05:01:10.346Z,100.00
2023-03-26T05:03:42.325Z,100.00
2023-03-26T05:06:23.471Z,100.00
2023-03-26T05:08:53.058Z,100.00
2023-03-26T05:11:22.310Z,100.00
2023-03-26T05:13:56.088Z,100.00
2023-03-26T05:16:25.301Z,100.00
2023-03-26T05:18:58.400Z,100.00
2023-03-26T05:21:32.848Z,100.00
2023-03-26T05:23:59.655Z,100.00
2023-03-26T05:26:31.424Z,100.00
2023-03-26T05:29:06.419Z,100.00
2023-03-26T05:31:37.136Z,100.00
2023-03-26T05:34:03.752Z,100.00
2023-03-26T05:39:23.110Z,100.00
2023-03-26T05:41:50.157Z,100.00
2023-03-26T05:44:16.578Z,100.00
2023-03-26T05:46:43.018Z,100.00
2023-03-26T05:49:09.457Z,100.00
2023-03-26T05:51:36.049Z,100.00
2023-03-26T05:54:02.549Z,100.00
2023-03-26T05:56:29.056Z,100.00
2023-03-26T05:58:56.433Z,100.00
2023-03-26T06:01:25.663Z,100.00
2023-03-26T06:03:52.542Z,100.00
2023-03-26T06:06:20.839Z,99.32
2023-03-26T06:09:00.909Z,100.00
2023-03-26T06:11:28.825Z,99.33
2023-03-26T06:13:55.212Z,98.93
2023-03-26T06:16:27.097Z,98.29
2023-03-26T06:18:57.217Z,97.24
2023-03-26T06:21:25.805Z,96.82
2023-03-26T06:23:52.748Z,95.68
2023-03-26T06:26:19.453Z,94.51
2023-03-26T06:28:46.129Z,95.85
2023-03-26T06:31:12.906Z,95.56
2023-03-26T06:33:39.443Z,95.54
2023-03-26T06:36:06.271Z,94.12
2023-03-26T06:38:32.753Z,94.68
2023-03-26T06:41:03.901Z,94.41
2023-03-26T06:43:33.693Z,94.40
2023-03-26T06:46:04.085Z,95.13
2023-03-26T06:48:31.236Z,94.86
2023-03-26T06:50:57.933Z,94.44
2023-03-26T06:53:24.354Z,95.16
2023-03-26T06:55:50.902Z,94.73
2023-03-26T06:58:17.305Z,94.15
2023-03-26T07:00:43.909Z,93.12
2023-03-26T07:03:11.408Z,93.64
2023-03-26T07:05:38.734Z,93.53
2023-03-26T07:08:05.791Z,93.40
2023-03-26T07:10:32.595Z,93.22
2023-03-26T07:12:59.153Z,94.19
2023-03-26T07:15:27.557Z,94.46
2023-03-26T07:17:54.038Z,93.24
2023-03-26T07:20:20.506Z,91.21
2023-03-26T07:22:47.294Z,91.63
2023-03-26T07:25:14.916Z,93.79
2023-03-26T07:28:02.609Z,93.26
2023-03-26T07:30:47.442Z,93.20
2023-03-26T07:33:27.098Z,93.92
2023-03-26T07:36:19.692Z,94.71
2023-03-26T07:39:02.249Z,95.46
2023-03-26T07:41:44.064Z,95.81
2023-03-26T07:44:37.010Z,97.08
2023-03-26T07:47:19.835Z,97.40
2023-03-26T07:49:46.491Z,94.98
2023-03-26T07:52:13.220Z,94.58
2023-03-26T07:54:39.870Z,95.32
2023-03-26T07:57:13.934Z,95.22
2023-03-26T07:59:42.988Z,94.01
2023-03-26T08:02:37.053Z,93.80
2023-03-26T08:05:19.038Z,96.33
2023-03-26T08:08:19.715Z,96.33
2023-03-26T08:11:00.961Z,97.71
2023-03-26T08:13:56.997Z,99.18
2023-03-26T08:16:32.324Z,98.76
2023-03-26T08:19:10.814Z,100.00
2023-03-26T08:21:55.980Z,100.00
2023-03-26T08:25:01.471Z,100.00
2023-03-26T08:27:34.525Z,100.00
2023-03-26T08:30:10.767Z,100.00
2023-03-26T08:32:37.785Z,100.00
2023-03-26T08:35:05.044Z,100.00
2023-03-26T08:37:33.177Z,100.00
2023-03-26T08:40:00.017Z,100.00
2023-03-26T08:42:56.493Z,100.00
2023-03-26T08:45:52.316Z,100.00
2023-03-26T08:48:33.905Z,100.00
2023-03-26T08:51:19.490Z,100.00
2023-03-26T08:54:18.954Z,100.00
2023-03-26T08:57:03.785Z,100.00
2023-03-26T08:59:42.260Z,100.00
2023-03-26T09:02:30.152Z,100.00
2023-03-26T09:05:05.699Z,100.00
2023-03-26T09:07:57.598Z,100.00
2023-03-26T09:10:48.531Z,100.00
2023-03-26T09:13:33.274Z,100.00
2023-03-26T09:16:10.664Z,100.00
2023-03-26T09:18:56.276Z,100.00
2023-03-26T09:21:49.881Z,100.00
2023-03-26T09:24:50.300Z,100.00
2023-03-26T09:27:29.082Z,100.00
2023-03-26T09:30:04.346Z,100.00
2023-03-26T09:32:49.142Z,100.00
2023-03-26T09:35:24.620Z,100.00
2023-03-26T09:37:58.924Z,100.00
2023-03-26T09:40:42.471Z,100.00
2023-03-26T09:43:51.732Z,100.00
2023-03-26T09:46:24.228Z,100.00
2023-03-26T09:49:03.151Z,100.00
2023-03-26T09:51:34.660Z,100.00
2023-03-26T09:54:38.237Z,100.00
2023-03-26T09:57:07.912Z,100.00
2023-03-26T10:00:04.698Z,100.00
2023-03-26T10:02:45.546Z,100.00
2023-03-26T10:05:41.389Z,100.00
2023-03-26T10:08:37.414Z,100.00
2023-03-26T10:11:37.457Z,100.00
2023-03-26T10:14:16.117Z,100.00
2023-03-26T10:16:59.572Z,100.00
2023-03-26T10:19:47.862Z,100.00
2023-03-26T10:22:52.262Z,100.00
2023-03-26T10:25:39.558Z,100.00
2023-03-26T10:28:23.998Z,100.00
2023-03-26T10:31:25.695Z,100.00
2023-03-26T10:34:01.241Z,100.00
2023-03-26T10:36:42.947Z,100.00
2023-03-26T10:39:39.801Z,100.00
2023-03-26T10:42:31.219Z,100.00
2023-03-26T10:45:05.189Z,100.00
2023-03-26T10:47:32.655Z,100.00
2023-03-26T10:50:05.072Z,100.00
2023-03-26T10:52:38.971Z,100.00
2023-03-26T10:55:16.348Z,100.00
2023-03-26T10:57:52.761Z,100.00
2023-03-26T11:00:25.462Z,100.00
2023-03-26T11:03:16.541Z,100.00
2023-03-26T11:06:07.948Z,100.00
2023-03-26T11:08:52.726Z,100.00
2023-03-26T11:11:28.138Z,100.00
2023-03-26T11:14:31.769Z,100.00
2023-03-26T11:17:39.346Z,100.00
2023-03-26T11:20:16.660Z,100.00
2023-03-26T11:23:19.876Z,100.00
2023-03-26T11:26:18.157Z,100.00
2023-03-26T11:29:03.098Z,100.00
2023-03-26T11:32:04.593Z,100.00
2023-03-26T11:34:37.809Z,100.00
2023-03-26T11:37:13.075Z,100.00
2023-03-26T11:39:53.463Z,100.00
2023-03-26T11:42:23.444Z,100.00
2023-03-26T11:44:57.219Z,100.00
2023-03-26T11:47:32.382Z,100.00
2023-03-26T11:50:01.829Z,100.00
2023-03-26T11:52:34.155Z,100.00
2023-03-26T11:55:00.565Z,100.00
2023-03-26T11:57:33.032Z,100.00
2023-03-26T12:00:17.990Z,100.00
2023-03-26T12:02:46.911Z,100.00
2023-03-26T12:05:26.607Z,100.00
2023-03-26T12:08:03.822Z,100.00
2023-03-26T12:10:35.092Z,100.00
2023-03-26T12:13:06.478Z,100.00
2023-03-26T12:15:33.099Z,100.00
2023-03-26T12:18:23.047Z,100.00
2023-03-26T12:21:01.365Z,100.00
2023-03-26T12:23:56.366Z,100.00
2023-03-26T12:26:41.611Z,100.00
2023-03-26T12:29:11.490Z,100.00
2023-03-26T12:32:03.504Z,100.00
2023-03-26T12:34:36.812Z,100.00
2023-03-26T12:37:05.710Z,100.00
2023-03-26T12:40:07.089Z,100.00
2023-03-26T12:44:49.732Z,100.00
2023-03-26T12:45:14.526Z,100.00
2023-03-26T12:47:58.515Z,100.00
2023-03-26T12:50:36.804Z,100.00
2023-03-26T12:53:32.760Z,100.00
2023-03-26T12:56:36.437Z,100.00
2023-03-26T12:59:33.852Z,100.00
2023-03-26T13:02:03.284Z,100.00
2023-03-26T13:04:49.172Z,100.00
2023-03-26T13:07:34.227Z,100.00
2023-03-26T13:10:30.902Z,100.00
2023-03-26T13:13:07.337Z,97.77
2023-03-26T13:15:56.724Z,99.58
2023-03-26T13:18:49.170Z,98.29
2023-03-26T13:21:45.474Z,96.35
2023-03-26T13:24:30.181Z,98.88
2023-03-26T13:27:08.995Z,98.03
2023-03-26T13:29:49.823Z,96.77
2023-03-26T13:32:30.097Z,93.32
2023-03-26T13:35:08.568Z,92.32
2023-03-26T13:37:44.409Z,90.32
2023-03-26T13:40:17.130Z,88.96
2023-03-26T13:42:57.422Z,91.71
2023-03-26T13:46:10.378Z,88.59
2023-03-26T13:48:46.455Z,88.02
2023-03-26T13:51:28.381Z,88.33
2023-03-26T13:54:21.509Z,88.50
2023-03-26T13:56:54.777Z,88.25
2023-03-26T13:59:30.160Z,88.78
2023-03-26T14:02:03.747Z,88.62
2023-03-26T14:04:38.677Z,92.24
2023-03-26T14:07:12.731Z,93.55
2023-03-26T14:09:54.575Z,91.91
2023-03-26T14:12:48.782Z,93.21
2023-03-26T14:15:38.410Z,91.93
2023-03-26T14:18:39.028Z,91.94
2023-03-26T14:21:11.454Z,95.53
2023-03-26T14:24:04.215Z,95.43
2023-03-26T14:26:43.411Z,96.52
2023-03-26T14:29:31.448Z,93.05
2023-03-26T14:32:32.034Z,94.47
2023-03-26T14:35:27.996Z,91.29
2023-03-26T14:38:48.725Z,90.45
2023-03-26T14:41:44.871Z,86.86
2023-03-26T14:44:28.371Z,88.48
2023-03-26T14:47:08.834Z,88.41
2023-03-26T14:50:08.241Z,88.68
2023-03-26T14:52:49.984Z,89.81
2023-03-26T14:55:39.198Z,91.04
2023-03-26T14:58:14.636Z,89.06
2023-03-26T15:01:14.743Z,90.77
2023-03-26T15:03:59.985Z,89.35
2023-03-26T15:06:38.376Z,86.48
2023-03-26T15:09:41.730Z,85.52
2023-03-26T15:12:30.282Z,85.39
2023-03-26T15:15:35.465Z,86.77
2023-03-26T15:18:39.408Z,86.00
2023-03-26T15:21:36.916Z,86.43
2023-03-26T15:24:31.453Z,84.63
2023-03-26T15:27:16.639Z,85.64
2023-03-26T15:30:20.884Z,86.40
2023-03-26T15:33:06.248Z,85.25
2023-03-26T15:35:44.227Z,83.35
2023-03-26T15:38:53.244Z,81.55
2023-03-26T15:41:35.339Z,81.77
2023-03-26T15:44:24.026Z,81.68
2023-03-26T15:46:57.417Z,82.17
2023-03-26T15:49:34.469Z,83.92
2023-03-26T15:52:23.849Z,82.30
2023-03-26T15:55:09.091Z,82.98
2023-03-26T15:58:09.171Z,82.84
2023-03-26T16:00:48.714Z,82.88
2023-03-26T16:03:41.240Z,80.81
2023-03-26T16:06:35.279Z,81.75
2023-03-26T16:09:21.978Z,81.54
2023-03-26T16:11:56.081Z,78.28
2023-03-26T16:14:26.393Z,79.28
2023-03-26T16:17:04.859Z,77.92
2023-03-26T16:19:48.998Z,76.70
2023-03-26T16:22:42.639Z,74.80
2023-03-26T16:25:27.867Z,71.08
2023-03-26T16:28:10.941Z,71.03
2023-03-26T16:30:38.236Z,69.89
2023-03-26T16:33:14.011Z,69.30
2023-03-26T16:36:05.321Z,69.66
2023-03-26T16:39:05.012Z,70.72
2023-03-26T16:41:49.936Z,71.10
2023-03-26T16:44:24.277Z,72.22
2023-03-26T16:47:02.992Z,72.96
2023-03-26T16:50:08.763Z,72.70
2023-03-26T16:52:58.780Z,74.03
2023-03-26T16:55:38.581Z,74.82
2023-03-26T16:58:30.316Z,74.17
2023-03-26T17:01:21.999Z,76.56
2023-03-26T17:03:59.909Z,78.39
2023-03-26T17:06:33.775Z,80.65
2023-03-26T17:09:08.789Z,82.66
2023-03-26T17:11:46.530Z,84.60
2023-03-26T17:14:28.497Z,87.17
2023-03-26T17:17:22.972Z,89.34
2023-03-26T17:20:00.858Z,87.53
2023-03-26T17:22:39.304Z,88.19
2023-03-26T17:25:17.840Z,91.05
2023-03-26T17:27:59.106Z,91.92
2023-03-26T17:30:48.304Z,94.64
2023-03-26T17:33:26.919Z,94.89
2023-03-26T17:36:11.754Z,95.11
2023-03-26T17:38:45.342Z,96.93
2023-03-26T17:41:16.417Z,93.32
2023-03-26T17:43:46.863Z,93.62
2023-03-26T17:46:33.135Z,95.71
2023-03-26T17:49:11.927Z,95.22
2023-03-26T17:51:48.056Z,97.35
2023-03-26T17:54:39.313Z,97.71
2023-03-26T17:57:13.459Z,97.88
2023-03-26T17:59:42.876Z,97.79
2023-03-26T18:02:22.473Z,98.92
2023-03-26T18:04:53.724Z,98.95
2023-03-26T18:07:57.921Z,100.00
2023-03-26T18:10:39.664Z,98.03
2023-03-26T18:13:24.829Z,98.22
2023-03-26T18:16:13.135Z,98.94
2023-03-26T18:18:50.140Z,98.43
2023-03-26T18:21:40.159Z,95.17
2023-03-26T18:24:12.766Z,89.68
2023-03-26T18:26:49.050Z,85.16
2023-03-26T18:29:33.736Z,84.32
2023-03-26T18:32:10.205Z,85.09
2023-03-26T18:34:49.834Z,85.39
2023-03-26T18:37:22.506Z,82.40
2023-03-26T18:40:12.506Z,82.62
2023-03-26T18:42:40.965Z,81.55
2023-03-26T18:45:27.921Z,80.28
2023-03-26T18:48:01.114Z,80.93
2023-03-26T18:50:34.723Z,81.06
2023-03-26T18:53:01.706Z,81.64
2023-03-26T18:55:30.518Z,81.61
2023-03-26T18:57:57.639Z,82.13
2023-03-26T19:00:27.720Z,83.60
2023-03-26T19:03:17.544Z,83.70
2023-03-26T19:05:44.383Z,83.12
2023-03-26T19:08:12.057Z,83.53
2023-03-26T19:10:38.725Z,84.29
2023-03-26T19:13:05.475Z,84.40
2023-03-26T19:15:34.295Z,85.72
2023-03-26T19:18:23.882Z,86.46
2023-03-26T19:20:54.131Z,85.54
2023-03-26T19:23:25.964Z,85.63
2023-03-26T19:25:55.539Z,85.68
2023-03-26T19:28:25.683Z,87.67
2023-03-26T19:31:06.549Z,87.73
2023-03-26T19:33:40.140Z,87.83
2023-03-26T19:36:12.652Z,88.71
2023-03-26T19:38:44.607Z,90.15
2023-03-26T19:41:26.580Z,87.94
2023-03-26T19:43:56.171Z,88.00
2023-03-26T19:46:23.183Z,88.87
2023-03-26T19:48:52.675Z,88.81
2023-03-26T19:51:34.401Z,89.21
2023-03-26T19:54:04.059Z,89.52
2023-03-26T19:56:30.550Z,89.25
2023-03-26T19:58:57.562Z,89.13
2023-03-26T20:01:26.876Z,90.69
2023-03-26T20:04:00.981Z,90.79
2023-03-26T20:06:43.101Z,90.58
2023-03-26T20:09:11.641Z,90.74
2023-03-26T20:11:39.855Z,90.21
2023-03-26T20:14:24.360Z,90.03
2023-03-26T20:16:50.834Z,89.54
2023-03-26T20:19:17.982Z,89.48
2023-03-26T20:21:44.775Z,91.81
2023-03-26T20:24:17.274Z,91.68
2023-03-26T20:26:45.604Z,90.56
2023-03-26T20:29:13.552Z,90.84
2023-03-26T20:31:41.641Z,92.35
2023-03-26T20:34:17.767Z,93.01
2023-03-26T20:36:45.635Z,93.16
2023-03-26T20:39:12.599Z,93.37
2023-03-26T20:41:48.280Z,92.34
2023-03-26T20:44:17.892Z,93.06
2023-03-26T20:46:45.820Z,94.49
2023-03-26T20:49:18.604Z,92.49
2023-03-26T20:51:51.319Z,93.64
2023-03-26T20:54:24.645Z,94.14
2023-03-26T20:56:57.468Z,93.97
2023-03-26T20:59:27.588Z,93.73
2023-03-26T21:02:00.344Z,93.98
2023-03-26T21:04:29.653Z,93.18
2023-03-26T21:07:07.303Z,92.68
2023-03-26T21:09:43.089Z,93.92
2023-03-26T21:12:20.644Z,92.67
2023-03-26T21:14:47.611Z,92.89
2023-03-26T21:17:17.081Z,92.89
2023-03-26T21:19:46.670Z,92.18
2023-03-26T21:22:22.696Z,91.90
2023-03-26T21:25:05.482Z,93.26
2023-03-26T21:27:59.583Z,91.66
2023-03-26T21:30:26.399Z,92.08
2023-03-26T21:32:55.522Z,94.19
2023-03-26T21:35:22.556Z,93.15
2023-03-26T21:37:49.513Z,93.45
2023-03-26T21:40:18.338Z,94.73
2023-03-26T21:42:49.338Z,94.45
2023-03-26T21:45:17.568Z,94.33
2023-03-26T21:47:50.101Z,95.50
2023-03-26T21:50:34.709Z,94.50
2023-03-26T21:53:09.162Z,95.33
2023-03-26T21:55:56.671Z,94.69
2023-03-26T21:58:48.560Z,95.26
2023-03-26T22:01:20.092Z,96.11
2023-03-26T22:04:07.847Z,95.94
2023-03-26T22:06:48.998Z,96.90
2023-03-26T22:09:18.491Z,96.28
2023-03-26T22:11:47.343Z,95.26
2023-03-26T22:14:14.206Z,95.66
2023-03-26T22:16:41.642Z,96.75
2023-03-26T22:19:08.575Z,96.74
2023-03-26T22:21:35.813Z,97.22
2023-03-26T22:24:04.018Z,96.10
2023-03-26T22:26:31.269Z,96.30
2023-03-26T22:28:57.668Z,96.50
2023-03-26T22:31:30.225Z,97.26
2023-03-26T22:33:57.185Z,97.54
2023-03-26T22:36:25.282Z,96.05
2023-03-26T22:38:53.771Z,95.96
2023-03-26T22:41:21.559Z,96.26
2023-03-26T22:43:47.968Z,95.60
2023-03-26T22:46:14.431Z,96.51
2023-03-26T22:48:40.859Z,96.65
2023-03-26T22:51:09.286Z,97.19
2023-03-26T22:53:36.462Z,96.14
2023-03-26T22:56:04.186Z,96.80
2023-03-26T22:58:32.640Z,100.00
2023-03-26T23:01:08.233Z,99.98
2023-03-26T23:03:35.927Z,100.00
2023-03-26T23:06:06.193Z,100.00
2023-03-26T23:08:37.863Z,100.00
2023-03-26T23:11:13.125Z,100.00
2023-03-26T23:13:40.744Z,100.00
2023-03-26T23:16:11.253Z,100.00
2023-03-26T23:18:38.614Z,100.00
2023-03-26T23:21:12.095Z,100.00
2023-03-26T23:23:39.622Z,100.00
2023-03-26T23:26:06.853Z,100.00
2023-03-26T23:28:34.523Z,100.00
2023-03-26T23:31:04.332Z,100.00
2023-03-26T23:33:35.187Z,100.00
2023-03-26T23:36:04.168Z,100.00
2023-03-26T23:38:44.196Z,100.00
2023-03-26T23:41:14.771Z,100.00
2023-03-26T23:43:54.549Z,100.00
2023-03-26T23:46:30.309Z,100.00
2023-03-26T23:48:59.820Z,100.00
2023-03-26T23:51:27.840Z,100.00
2023-03-26T23:53:54.257Z,100.00
2023-03-26T23:56:21.022Z,100.00
2023-03-26T23:58:48.885Z,100.00
